Weather Outlook - 29th June 2022 (6am)

Potential Tropical Cyclone TWO will continue to dominate the weather pattern across Saint Vincent and the Grenadines for the remainder of the day. Therefore, pockets of moderate to heavy showers are forecast, with ENE-ESE winds blowing at approximately 35km/- 55km/h for the rest of the day. The flash flood watch and wind advisory remain in effect. Seas would remain rough with swells ranging between 2.5m – 4.0m. The marine warning remains in effect.

By Thursday, SVG will experience a decrease in cloud cover and a reduction in shower activity as the system tracks westward over the Southern Caribbean Sea. Also, east north-easterly winds are forecast to decrease, blowing at 20km/h-35km/h, and sea conditions will gradually improve from Thursday (1.5m on the western coasts and 3.0m on the eastern coasts). A tropical wave would be in the vicinity around Thursday night, and showers with possible isolated thunderstorms are forecast for Friday with instability lasting into the weekend.

In addition, a thin layer of Saharan dust haze will be visible posing no significant threat.

Aviation WX

[Source: ADDS]
METAR
TVSA 092200Z 06008KT 030V100 9999 BKN018 28/27 Q1013 NOSIG =
TVSA 092300Z 1000/1024 09015KT 9999 SCT018 PROB30 TEMPO 1021/1024 SHRA BKN015
TAF
TVSA 092300Z 1000/1024 09015KT 9999 SCT018 PROB30 TEMPO 1021/1024 SHRA BKN015 =
SR / SS: 09:51 / 22:28 UTC (Sunrise Sunset 2022-08-09)